Weather at Vladivostok International Airport

Public forecast

Using degrees Celsius for public forecast. Weather courtesy of forecast.io.

Current aviation weather report (METAR) for Vladivostok International Airport

Retrieved 2020/10/31 06:30 UTC (11 minutes ago):

UHWW 310630Z 17008MPS 9999 OVC036 11/05 Q1019 R25L/0///70 NOSIG RMK QFE763

Aviation forecast (TAF) for Vladivostok International Airport

Retrieved 2020/10/31 06:21 UTC (20 minutes ago):

TAF UHWW 310500Z 3106/0106 18006MPS 9999 BKN016CB TEMPO 3106/3110 18013MPS BECMG 3110/3112 22003MPS 5000 -SHRA